Aeroporto :
LOGIN :

Iscrizione | Disclaimer

   EN    FR    IT 

 










Sommario :    VFR   VFR Marginale   IFR   IFR Intensivo   IFR Molto Intensivo
Visibilità : 
Base nubi : 
>= 8 km
>= 3000ft
5 / 8 km
1000 / 3000 ft
1500m / 5 km
500 / 1000 ft
800 / 1500m
200 / 500 ft
< 800m
< 200 ft
Simboli :   Temporali  Nebbia  Neve Forte  Precipitazioni Forti  Vento > 20 kt
SIGMETs :   Varie  Temporali  Ghiacco  Turbolenza  Onda orograficha  Ceneri Vulcaniche







- Altitudine del aeroporto : 1989 ft
- Codice IATA : KLV


LKKV - Karlovy Vary

ULTIMO METAR :
  • 210800Z 25004KT 210V280 7000 NSC 02/01 Q1025

METARs OBSOLETI :
  • 210730Z 27004KT 240V300 4500 BR NSC 01/00 Q1025
  • 210700Z 28004KT 3000 BR NSC 00/M00 Q1025
  • 210630Z VRB01KT 3000 BR NSC M00/M01 Q1025
  • 210600Z 28004KT 3500 BR NSC M00/M00 Q1025

TAF AMD TAF LKKV
Valido dal 21 a 06 ore il 22 a 12 ore UTC


210630Z 2106/2212 22004KT 3500 BR NSC
TEMPO 2106/2109 VRB02KT 1700 BR SCT002
PROB30
TEMPO 2106/2108 0900 FZFG BKN002
BECMG 2109/2111 7000 NSC
BECMG 2111/2114 26014KT 9999 BKN020
TEMPO 2121/2212 7000 -RA BKN012
PROB30
TEMPO 2200/2206 4000 RA BKN005
BECMG 2203/2206 27004KT
BECMG 2210/2212 03008KT
Nessun NOTAM noto per questo aeroporto.



MetMap, La meteo Aeronautica in un colpo d'occhio ! - Copyright ORBIFLY Dicembre 2007 - Disclaimer

ORBIFLY MET'MAP TEAM :

Programmazione e sviluppo : Alexandra Zaïnal
Concezione e sviluppo : Baudouin d'Aumeries
Co-Programmazione e sviluppo : Marc-Olivier Méhu
Supporto tecnico e logistico : Manuel Goepfert
Aiuto per la traduzione : Arnaldo La Scala

Contatto : metmap@orbifly.com




FONTI E CREDITI :

   NOAA